sensor_id;sensor_type;location;lat;lon;timestamp;pressure;altitude;pressure_sealevel;temperature;humidity
38716;BME280;24833;49.324;8.694;2023-03-04T00:00:29;100450.91;;;1.48;55.34
38716;BME280;24833;49.324;8.694;2023-03-04T00:02:56;100445.03;;;1.45;55.38
38716;BME280;24833;49.324;8.694;2023-03-04T00:05:24;100454.84;;;1.43;55.45
38716;BME280;24833;49.324;8.694;2023-03-04T00:07:51;100461.31;;;1.39;55.51
38716;BME280;24833;49.324;8.694;2023-03-04T00:10:18;100456.28;;;1.35;55.36
38716;BME280;24833;49.324;8.694;2023-03-04T00:12:45;100451.25;;;1.32;55.38
38716;BME280;24833;49.324;8.694;2023-03-04T00:15:12;100454.13;;;1.29;55.38
38716;BME280;24833;49.324;8.694;2023-03-04T00:17:39;100457.81;;;1.27;55.52
38716;BME280;24833;49.324;8.694;2023-03-04T00:20:07;100459.88;;;1.23;55.10
38716;BME280;24833;49.324;8.694;2023-03-04T00:22:34;100450.53;;;1.19;55.21
38716;BME280;24833;49.324;8.694;2023-03-04T00:25:01;100456.75;;;1.18;55.39
38716;BME280;24833;49.324;8.694;2023-03-04T00:27:28;100454.38;;;1.15;55.45
38716;BME280;24833;49.324;8.694;2023-03-04T00:29:56;100456.25;;;1.13;55.22
38716;BME280;24833;49.324;8.694;2023-03-04T00:32:23;100456.50;;;1.10;55.45
38716;BME280;24833;49.324;8.694;2023-03-04T00:34:50;100462.00;;;1.07;55.54
38716;BME280;24833;49.324;8.694;2023-03-04T00:37:17;100468.31;;;1.04;55.47
38716;BME280;24833;49.324;8.694;2023-03-04T00:39:44;100464.16;;;1.02;55.55
38716;BME280;24833;49.324;8.694;2023-03-04T00:42:11;100468.78;;;0.98;55.49
38716;BME280;24833;49.324;8.694;2023-03-04T00:44:38;100464.75;;;0.94;55.42
38716;BME280;24833;49.324;8.694;2023-03-04T00:47:05;100468.41;;;0.92;55.44
38716;BME280;24833;49.324;8.694;2023-03-04T00:49:32;100469.38;;;0.91;55.53
38716;BME280;24833;49.324;8.694;2023-03-04T00:51:59;100469.63;;;0.88;55.37
38716;BME280;24833;49.324;8.694;2023-03-04T00:54:26;100478.56;;;0.85;55.54
38716;BME280;24833;49.324;8.694;2023-03-04T00:56:53;100463.03;;;0.82;55.77
38716;BME280;24833;49.324;8.694;2023-03-04T00:59:20;100476.31;;;0.80;55.58
38716;BME280;24833;49.324;8.694;2023-03-04T01:01:47;100467.78;;;0.77;55.74
38716;BME280;24833;49.324;8.694;2023-03-04T01:04:16;100469.81;;;0.73;55.43
38716;BME280;24833;49.324;8.694;2023-03-04T01:06:43;100474.47;;;0.70;55.65
38716;BME280;24833;49.324;8.694;2023-03-04T01:09:12;100468.59;;;0.66;55.31
38716;BME280;24833;49.324;8.694;2023-03-04T01:11:40;100467.88;;;0.64;55.54
38716;BME280;24833;49.324;8.694;2023-03-04T01:14:07;100475.03;;;0.62;55.71
38716;BME280;24833;49.324;8.694;2023-03-04T01:16:34;100467.38;;;0.59;55.77
38716;BME280;24833;49.324;8.694;2023-03-04T01:19:01;100468.56;;;0.55;55.89
38716;BME280;24833;49.324;8.694;2023-03-04T01:21:29;100462.69;;;0.51;55.63
38716;BME280;24833;49.324;8.694;2023-03-04T01:23:56;100465.44;;;0.50;55.65
38716;BME280;24833;49.324;8.694;2023-03-04T01:26:23;100461.34;;;0.46;55.60
38716;BME280;24833;49.324;8.694;2023-03-04T01:28:50;100461.59;;;0.43;55.70
38716;BME280;24833;49.324;8.694;2023-03-04T01:31:18;100457.41;;;0.40;55.70
38716;BME280;24833;49.324;8.694;2023-03-04T01:33:45;100458.47;;;0.38;55.50
38716;BME280;24833;49.324;8.694;2023-03-04T01:36:12;100455.13;;;0.36;55.79
38716;BME280;24833;49.324;8.694;2023-03-04T01:38:39;100455.34;;;0.33;55.63
38716;BME280;24833;49.324;8.694;2023-03-04T01:41:07;100460.81;;;0.30;55.79
38716;BME280;24833;49.324;8.694;2023-03-04T01:43:36;100454.84;;;0.28;55.66
38716;BME280;24833;49.324;8.694;2023-03-04T01:46:04;100458.53;;;0.25;55.78
38716;BME280;24833;49.324;8.694;2023-03-04T01:48:36;100458.75;;;0.22;55.65
38716;BME280;24833;49.324;8.694;2023-03-04T01:51:05;100455.38;;;0.20;55.72
38716;BME280;24833;49.324;8.694;2023-03-04T01:53:33;100451.22;;;0.17;55.91
38716;BME280;24833;49.324;8.694;2023-03-04T01:56:10;100447.88;;;0.15;55.63
38716;BME280;24833;49.324;8.694;2023-03-04T01:58:38;100441.16;;;0.11;55.55
38716;BME280;24833;49.324;8.694;2023-03-04T02:01:04;100445.69;;;0.09;55.75
38716;BME280;24833;49.324;8.694;2023-03-04T02:03:32;100441.47;;;0.07;55.83
38716;BME280;24833;49.324;8.694;2023-03-04T02:06:00;100434.69;;;0.04;55.58
38716;BME280;24833;49.324;8.694;2023-03-04T02:08:27;100437.53;;;0.01;55.82
38716;BME280;24833;49.324;8.694;2023-03-04T02:10:55;100431.53;;;-0.01;55.80
38716;BME280;24833;49.324;8.694;2023-03-04T02:13:22;100428.22;;;-0.03;56.05
38716;BME280;24833;49.324;8.694;2023-03-04T02:15:50;100431.91;;;-0.06;55.72
38716;BME280;24833;49.324;8.694;2023-03-04T02:18:23;100430.31;;;-0.08;55.63
38716;BME280;24833;49.324;8.694;2023-03-04T02:21:22;100434.13;;;-0.12;55.39
38716;BME280;24833;49.324;8.694;2023-03-04T02:24:23;100435.16;;;-0.15;54.95
38716;BME280;24833;49.324;8.694;2023-03-04T02:26:52;100436.25;;;-0.17;55.66
38716;BME280;24833;49.324;8.694;2023-03-04T02:29:19;100434.69;;;-0.20;55.64
38716;BME280;24833;49.324;8.694;2023-03-04T02:31:50;100429.66;;;-0.23;55.71
38716;BME280;24833;49.324;8.694;2023-03-04T02:36:52;100429.13;;;-0.28;55.58
38716;BME280;24833;49.324;8.694;2023-03-04T02:41:49;100426.84;;;-0.33;55.81
38716;BME280;24833;49.324;8.694;2023-03-04T02:44:29;100430.63;;;-0.37;55.24
38716;BME280;24833;49.324;8.694;2023-03-04T02:46:58;100429.78;;;-0.37;55.88
38716;BME280;24833;49.324;8.694;2023-03-04T02:49:28;100418.66;;;-0.41;55.71
38716;BME280;24833;49.324;8.694;2023-03-04T02:52:19;100424.16;;;-0.44;55.30
38716;BME280;24833;49.324;8.694;2023-03-04T02:54:47;100420.81;;;-0.46;55.78
38716;BME280;24833;49.324;8.694;2023-03-04T02:57:16;100421.00;;;-0.49;55.72
38716;BME280;24833;49.324;8.694;2023-03-04T02:59:47;100423.75;;;-0.50;56.02
38716;BME280;24833;49.324;8.694;2023-03-04T03:02:18;100422.28;;;-0.55;55.34
38716;BME280;24833;49.324;8.694;2023-03-04T03:04:45;100419.78;;;-0.56;55.80
38716;BME280;24833;49.324;8.694;2023-03-04T03:07:14;100422.50;;;-0.58;55.94
38716;BME280;24833;49.324;8.694;2023-03-04T03:09:42;100420.94;;;-0.60;56.00
38716;BME280;24833;49.324;8.694;2023-03-04T03:12:09;100423.66;;;-0.62;55.99
38716;BME280;24833;49.324;8.694;2023-03-04T03:14:36;100414.94;;;-0.62;56.12
38716;BME280;24833;49.324;8.694;2023-03-04T03:17:04;100420.31;;;-0.64;56.11
38716;BME280;24833;49.324;8.694;2023-03-04T03:19:31;100418.75;;;-0.66;55.97
38716;BME280;24833;49.324;8.694;2023-03-04T03:22:01;100417.91;;;-0.67;56.19
38716;BME280;24833;49.324;8.694;2023-03-04T03:24:28;100417.16;;;-0.69;55.97
38716;BME280;24833;49.324;8.694;2023-03-04T03:26:55;100419.91;;;-0.70;56.02
38716;BME280;24833;49.324;8.694;2023-03-04T03:29:23;100413.00;;;-0.71;56.28
38716;BME280;24833;49.324;8.694;2023-03-04T03:31:50;100415.81;;;-0.74;56.21
38716;BME280;24833;49.324;8.694;2023-03-04T03:34:19;100414.13;;;-0.75;56.22
38716;BME280;24833;49.324;8.694;2023-03-04T03:36:47;100410.78;;;-0.77;55.93
38716;BME280;24833;49.324;8.694;2023-03-04T03:39:14;100416.22;;;-0.80;56.19
38716;BME280;24833;49.324;8.694;2023-03-04T03:41:41;100418.03;;;-0.81;56.29
38716;BME280;24833;49.324;8.694;2023-03-04T03:44:08;100427.78;;;-0.83;56.38
38716;BME280;24833;49.324;8.694;2023-03-04T03:46:35;100420.03;;;-0.85;56.22
38716;BME280;24833;49.324;8.694;2023-03-04T03:49:02;100419.38;;;-0.88;56.19
38716;BME280;24833;49.324;8.694;2023-03-04T03:51:29;100422.13;;;-0.90;56.36
38716;BME280;24833;49.324;8.694;2023-03-04T03:53:56;100428.31;;;-0.91;56.36
38716;BME280;24833;49.324;8.694;2023-03-04T03:56:23;100425.88;;;-0.94;56.22
38716;BME280;24833;49.324;8.694;2023-03-04T03:58:50;100427.78;;;-0.96;56.15
38716;BME280;24833;49.324;8.694;2023-03-04T04:01:17;100432.31;;;-0.98;56.49
38716;BME280;24833;49.324;8.694;2023-03-04T04:03:44;100426.34;;;-1.00;56.27
38716;BME280;24833;49.324;8.694;2023-03-04T04:06:11;100435.13;;;-1.01;56.45
38716;BME280;24833;49.324;8.694;2023-03-04T04:08:38;100435.22;;;-1.02;56.60
38716;BME280;24833;49.324;8.694;2023-03-04T04:11:05;100434.50;;;-1.04;56.50
38716;BME280;24833;49.324;8.694;2023-03-04T04:13:32;100437.25;;;-1.06;56.40
38716;BME280;24833;49.324;8.694;2023-03-04T04:15:58;100439.03;;;-1.06;56.48
38716;BME280;24833;49.324;8.694;2023-03-04T04:18:26;100428.63;;;-1.08;56.30
38716;BME280;24833;49.324;8.694;2023-03-04T04:20:53;100432.09;;;-1.07;56.83
38716;BME280;24833;49.324;8.694;2023-03-04T04:23:20;100438.19;;;-1.07;56.40
38716;BME280;24833;49.324;8.694;2023-03-04T04:25:47;100439.03;;;-1.06;56.42
38716;BME280;24833;49.324;8.694;2023-03-04T04:28:14;100443.31;;;-1.05;56.39
38716;BME280;24833;49.324;8.694;2023-03-04T04:30:42;100427.47;;;-1.04;56.42
38716;BME280;24833;49.324;8.694;2023-03-04T04:33:09;100437.00;;;-1.03;56.53
38716;BME280;24833;49.324;8.694;2023-03-04T04:35:36;100437.66;;;-0.99;56.72
38716;BME280;24833;49.324;8.694;2023-03-04T04:38:06;100434.09;;;-0.98;56.51
38716;BME280;24833;49.324;8.694;2023-03-04T04:40:33;100433.03;;;-0.96;57.04
38716;BME280;24833;49.324;8.694;2023-03-04T04:43:00;100436.38;;;-0.94;56.64
38716;BME280;24833;49.324;8.694;2023-03-04T04:45:28;100441.41;;;-0.91;56.43
38716;BME280;24833;49.324;8.694;2023-03-04T04:47:55;100446.44;;;-0.88;56.56
38716;BME280;24833;49.324;8.694;2023-03-04T04:50:23;100440.16;;;-0.85;56.60
38716;BME280;24833;49.324;8.694;2023-03-04T04:52:51;100438.06;;;-0.80;57.11
38716;BME280;24833;49.324;8.694;2023-03-04T04:55:18;100440.56;;;-0.78;56.79
38716;BME280;24833;49.324;8.694;2023-03-04T04:57:45;100443.91;;;-0.76;56.78
38716;BME280;24833;49.324;8.694;2023-03-04T05:00:13;100441.94;;;-0.73;56.79
38716;BME280;24833;49.324;8.694;2023-03-04T05:02:40;100447.91;;;-0.71;56.92
38716;BME280;24833;49.324;8.694;2023-03-04T05:05:07;100442.56;;;-0.69;56.77
38716;BME280;24833;49.324;8.694;2023-03-04T05:07:34;100435.53;;;-0.69;56.73
38716;BME280;24833;49.324;8.694;2023-03-04T05:10:01;100435.53;;;-0.69;56.92
38716;BME280;24833;49.324;8.694;2023-03-04T05:12:29;100438.91;;;-0.67;57.99
38716;BME280;24833;49.324;8.694;2023-03-04T05:14:55;100432.78;;;-0.67;57.41
38716;BME280;24833;49.324;8.694;2023-03-04T05:17:22;100437.19;;;-0.68;57.09
38716;BME280;24833;49.324;8.694;2023-03-04T05:19:49;100433.72;;;-0.68;57.21
38716;BME280;24833;49.324;8.694;2023-03-04T05:22:16;100440.75;;;-0.69;57.24
38716;BME280;24833;49.324;8.694;2023-03-04T05:24:43;100448.75;;;-0.70;56.95
38716;BME280;24833;49.324;8.694;2023-03-04T05:27:10;100445.41;;;-0.72;56.83
38716;BME280;24833;49.324;8.694;2023-03-04T05:29:37;100447.06;;;-0.71;57.05
38716;BME280;24833;49.324;8.694;2023-03-04T05:32:04;100451.47;;;-0.72;57.00
38716;BME280;24833;49.324;8.694;2023-03-04T05:34:31;100452.44;;;-0.73;56.97
38716;BME280;24833;49.324;8.694;2023-03-04T05:36:58;100447.91;;;-0.71;56.95
38716;BME280;24833;49.324;8.694;2023-03-04T05:39:25;100448.75;;;-0.70;57.26
38716;BME280;24833;49.324;8.694;2023-03-04T05:41:52;100453.97;;;-0.70;57.01
38716;BME280;24833;49.324;8.694;2023-03-04T05:44:19;100451.25;;;-0.69;57.05
38716;BME280;24833;49.324;8.694;2023-03-04T05:46:46;100447.78;;;-0.69;57.18
38716;BME280;24833;49.324;8.694;2023-03-04T05:49:13;100458.28;;;-0.69;57.04
38716;BME280;24833;49.324;8.694;2023-03-04T05:51:40;100453.75;;;-0.67;57.23
38716;BME280;24833;49.324;8.694;2023-03-04T05:54:07;100446.75;;;-0.67;58.00
38716;BME280;24833;49.324;8.694;2023-03-04T05:56:34;100456.28;;;-0.66;57.63
38716;BME280;24833;49.324;8.694;2023-03-04T05:59:01;100449.25;;;-0.65;58.09
38716;BME280;24833;49.324;8.694;2023-03-04T06:01:28;100452.72;;;-0.65;57.55
38716;BME280;24833;49.324;8.694;2023-03-04T06:03:57;100448.31;;;-0.64;57.44
38716;BME280;24833;49.324;8.694;2023-03-04T06:06:24;100449.03;;;-0.62;57.49
38716;BME280;24833;49.324;8.694;2023-03-04T06:08:51;100450.72;;;-0.61;57.21
38716;BME280;24833;49.324;8.694;2023-03-04T06:11:18;100452.28;;;-0.59;57.48
38716;BME280;24833;49.324;8.694;2023-03-04T06:13:45;100453.13;;;-0.58;57.56
38716;BME280;24833;49.324;8.694;2023-03-04T06:16:12;100462.69;;;-0.57;57.65
38716;BME280;24833;49.324;8.694;2023-03-04T06:18:39;100470.53;;;-0.57;57.63
38716;BME280;24833;49.324;8.694;2023-03-04T06:21:06;100469.47;;;-0.55;58.05
38716;BME280;24833;49.324;8.694;2023-03-04T06:23:32;100473.88;;;-0.55;58.97
38716;BME280;24833;49.324;8.694;2023-03-04T06:26:00;100480.81;;;-0.54;59.03
38716;BME280;24833;49.324;8.694;2023-03-04T06:28:28;100478.94;;;-0.52;57.96
38716;BME280;24833;49.324;8.694;2023-03-04T06:30:56;100485.00;;;-0.51;58.37
38716;BME280;24833;49.324;8.694;2023-03-04T06:33:23;100489.44;;;-0.52;60.44
38716;BME280;24833;49.324;8.694;2023-03-04T06:35:56;100481.56;;;-0.52;58.91
38716;BME280;24833;49.324;8.694;2023-03-04T06:38:25;100488.47;;;-0.51;58.47
38716;BME280;24833;49.324;8.694;2023-03-04T06:40:52;100489.19;;;-0.49;58.33
38716;BME280;24833;49.324;8.694;2023-03-04T06:43:23;100499.56;;;-0.47;58.77
38716;BME280;24833;49.324;8.694;2023-03-04T06:45:50;100499.50;;;-0.46;58.30
38716;BME280;24833;49.324;8.694;2023-03-04T06:48:17;100499.25;;;-0.43;60.13
38716;BME280;24833;49.324;8.694;2023-03-04T06:50:44;100501.69;;;-0.40;58.50
38716;BME280;24833;49.324;8.694;2023-03-04T06:53:11;100504.19;;;-0.38;59.13
38716;BME280;24833;49.324;8.694;2023-03-04T06:55:37;100507.53;;;-0.36;59.63
38716;BME280;24833;49.324;8.694;2023-03-04T06:58:04;100507.34;;;-0.33;58.46
38716;BME280;24833;49.324;8.694;2023-03-04T07:00:31;100507.00;;;-0.29;58.80
38716;BME280;24833;49.324;8.694;2023-03-04T07:02:59;100500.72;;;-0.26;58.55
38716;BME280;24833;49.324;8.694;2023-03-04T07:05:26;100506.56;;;-0.22;58.41
38716;BME280;24833;49.324;8.694;2023-03-04T07:07:53;100505.31;;;-0.17;58.99
38716;BME280;24833;49.324;8.694;2023-03-04T07:10:20;100511.19;;;-0.13;58.58
38716;BME280;24833;49.324;8.694;2023-03-04T07:12:47;100508.22;;;-0.09;58.42
38716;BME280;24833;49.324;8.694;2023-03-04T07:15:14;100513.03;;;-0.03;58.86
38716;BME280;24833;49.324;8.694;2023-03-04T07:17:41;100513.66;;;0.01;58.84
38716;BME280;24833;49.324;8.694;2023-03-04T07:20:09;100517.59;;;0.07;58.67
38716;BME280;24833;49.324;8.694;2023-03-04T07:22:36;100529.56;;;0.11;58.50
38716;BME280;24833;49.324;8.694;2023-03-04T07:25:05;100531.06;;;0.15;58.98
38716;BME280;24833;49.324;8.694;2023-03-04T07:27:32;100525.44;;;0.19;58.92
38716;BME280;24833;49.324;8.694;2023-03-04T07:29:59;100527.75;;;0.24;59.09
38716;BME280;24833;49.324;8.694;2023-03-04T07:32:26;100520.50;;;0.28;59.13
38716;BME280;24833;49.324;8.694;2023-03-04T07:34:53;100528.97;;;0.31;59.11
38716;BME280;24833;49.324;8.694;2023-03-04T07:37:20;100534.03;;;0.34;59.19
38716;BME280;24833;49.324;8.694;2023-03-04T07:39:47;100526.75;;;0.38;59.02
38716;BME280;24833;49.324;8.694;2023-03-04T07:42:14;100536.31;;;0.39;58.86
38716;BME280;24833;49.324;8.694;2023-03-04T07:44:49;100531.56;;;0.44;59.44
38716;BME280;24833;49.324;8.694;2023-03-04T07:47:16;100523.34;;;0.48;59.42
38716;BME280;24833;49.324;8.694;2023-03-04T07:49:43;100528.38;;;0.51;59.18
38716;BME280;24833;49.324;8.694;2023-03-04T07:52:10;100529.84;;;0.56;58.98
38716;BME280;24833;49.324;8.694;2023-03-04T07:54:40;100535.59;;;0.61;59.48
38716;BME280;24833;49.324;8.694;2023-03-04T07:57:06;100538.81;;;0.64;59.54
38716;BME280;24833;49.324;8.694;2023-03-04T07:59:33;100545.53;;;0.68;59.41
38716;BME280;24833;49.324;8.694;2023-03-04T08:02:00;100544.34;;;0.72;59.50
38716;BME280;24833;49.324;8.694;2023-03-04T08:04:27;100545.91;;;0.75;59.48
38716;BME280;24833;49.324;8.694;2023-03-04T08:06:54;100547.47;;;0.77;59.37
38716;BME280;24833;49.324;8.694;2023-03-04T08:09:21;100546.31;;;0.81;60.03
38716;BME280;24833;49.324;8.694;2023-03-04T08:11:48;100547.75;;;0.86;59.66
38716;BME280;24833;49.324;8.694;2023-03-04T08:14:15;100535.34;;;0.88;59.63
38716;BME280;24833;49.324;8.694;2023-03-04T08:16:42;100544.78;;;0.90;60.06
38716;BME280;24833;49.324;8.694;2023-03-04T08:19:10;100549.78;;;0.93;59.66
38716;BME280;24833;49.324;8.694;2023-03-04T08:21:38;100546.81;;;0.98;59.94
38716;BME280;24833;49.324;8.694;2023-03-04T08:24:05;100541.34;;;1.01;60.03
38716;BME280;24833;49.324;8.694;2023-03-04T08:26:39;100541.94;;;1.04;59.90
38716;BME280;24833;49.324;8.694;2023-03-04T08:29:13;100544.25;;;1.09;59.65
38716;BME280;24833;49.324;8.694;2023-03-04T08:31:42;100547.59;;;1.11;59.65
38716;BME280;24833;49.324;8.694;2023-03-04T08:34:14;100547.38;;;1.14;59.66
38716;BME280;24833;49.324;8.694;2023-03-04T08:36:41;100551.53;;;1.17;60.15
38716;BME280;24833;49.324;8.694;2023-03-04T08:39:12;100552.13;;;1.20;59.77
38716;BME280;24833;49.324;8.694;2023-03-04T08:41:40;100545.81;;;1.23;59.73
38716;BME280;24833;49.324;8.694;2023-03-04T08:44:07;100542.84;;;1.27;59.69
38716;BME280;24833;49.324;8.694;2023-03-04T08:46:37;100532.91;;;1.31;60.08
38716;BME280;24833;49.324;8.694;2023-03-04T08:49:05;100549.31;;;1.34;60.10
38716;BME280;24833;49.324;8.694;2023-03-04T08:51:33;100549.91;;;1.38;59.89
38716;BME280;24833;49.324;8.694;2023-03-04T08:54:04;100548.84;;;1.41;59.82
38716;BME280;24833;49.324;8.694;2023-03-04T08:56:31;100545.00;;;1.45;59.95
38716;BME280;24833;49.324;8.694;2023-03-04T08:58:59;100549.22;;;1.47;60.27
38716;BME280;24833;49.324;8.694;2023-03-04T09:01:25;100553.41;;;1.50;59.79
38716;BME280;24833;49.324;8.694;2023-03-04T09:03:53;100550.66;;;1.51;60.07
38716;BME280;24833;49.324;8.694;2023-03-04T09:06:20;100553.06;;;1.54;60.25
38716;BME280;24833;49.324;8.694;2023-03-04T09:08:47;100551.13;;;1.56;60.39
38716;BME280;24833;49.324;8.694;2023-03-04T09:11:14;100546.72;;;1.57;60.48
38716;BME280;24833;49.324;8.694;2023-03-04T09:13:41;100551.00;;;1.58;60.32
38716;BME280;24833;49.324;8.694;2023-03-04T09:16:11;100556.28;;;1.58;60.29
38716;BME280;24833;49.324;8.694;2023-03-04T09:18:40;100543.00;;;1.59;60.42
38716;BME280;24833;49.324;8.694;2023-03-04T09:21:07;100550.06;;;1.59;59.99
38716;BME280;24833;49.324;8.694;2023-03-04T09:23:36;100545.53;;;1.61;60.50
38716;BME280;24833;49.324;8.694;2023-03-04T09:26:20;100551.50;;;1.63;59.86
38716;BME280;24833;49.324;8.694;2023-03-04T09:28:53;100548.63;;;1.66;60.40
38716;BME280;24833;49.324;8.694;2023-03-04T09:31:21;100552.81;;;1.69;60.35
38716;BME280;24833;49.324;8.694;2023-03-04T09:33:50;100555.34;;;1.70;60.37
38716;BME280;24833;49.324;8.694;2023-03-04T09:36:18;100554.38;;;1.71;60.66
38716;BME280;24833;49.324;8.694;2023-03-04T09:38:45;100555.06;;;1.73;60.45
38716;BME280;24833;49.324;8.694;2023-03-04T09:44:27;100550.31;;;1.78;60.11
38716;BME280;24833;49.324;8.694;2023-03-04T09:46:59;100557.97;;;1.81;60.63
38716;BME280;24833;49.324;8.694;2023-03-04T09:49:27;100555.09;;;1.84;60.78
38716;BME280;24833;49.324;8.694;2023-03-04T10:00:42;100563.22;;;1.92;60.71
38716;BME280;24833;49.324;8.694;2023-03-04T10:06:07;100566.34;;;1.98;60.75
38716;BME280;24833;49.324;8.694;2023-03-04T10:08:53;100572.31;;;2.00;60.61
38716;BME280;24833;49.324;8.694;2023-03-04T10:11:47;100573.88;;;2.02;60.57
38716;BME280;24833;49.324;8.694;2023-03-04T10:21:58;100571.34;;;2.12;61.00
38716;BME280;24833;49.324;8.694;2023-03-04T10:24:29;100568.59;;;2.13;61.25
38716;BME280;24833;49.324;8.694;2023-03-04T10:27:03;100567.53;;;2.16;60.95
38716;BME280;24833;49.324;8.694;2023-03-04T10:29:32;100564.75;;;2.17;61.51
38716;BME280;24833;49.324;8.694;2023-03-04T10:31:59;100565.38;;;2.21;61.09
38716;BME280;24833;49.324;8.694;2023-03-04T10:34:26;100559.84;;;2.24;61.47
38716;BME280;24833;49.324;8.694;2023-03-04T10:37:06;100561.28;;;2.28;60.83
38716;BME280;24833;49.324;8.694;2023-03-04T10:39:42;100559.22;;;2.32;61.05
38716;BME280;24833;49.324;8.694;2023-03-04T10:42:25;100563.31;;;2.36;61.20
38716;BME280;24833;49.324;8.694;2023-03-04T10:44:57;100552.50;;;2.39;61.05
38716;BME280;24833;49.324;8.694;2023-03-04T10:47:30;100556.56;;;2.43;61.18
38716;BME280;24833;49.324;8.694;2023-03-04T10:50:01;100555.34;;;2.47;61.28
38716;BME280;24833;49.324;8.694;2023-03-04T10:52:39;100555.13;;;2.50;61.16
38716;BME280;24833;49.324;8.694;2023-03-04T10:55:20;100548.50;;;2.56;61.04
38716;BME280;24833;49.324;8.694;2023-03-04T10:57:52;100542.84;;;2.60;61.33
38716;BME280;24833;49.324;8.694;2023-03-04T11:00:34;100546.66;;;2.67;61.65
38716;BME280;24833;49.324;8.694;2023-03-04T11:06:18;100538.84;;;2.77;61.15
38716;BME280;24833;49.324;8.694;2023-03-04T11:08:57;100539.31;;;2.82;61.44
38716;BME280;24833;49.324;8.694;2023-03-04T11:11:38;100537.97;;;2.88;61.34
38716;BME280;24833;49.324;8.694;2023-03-04T11:14:23;100534.78;;;2.94;61.41
38716;BME280;24833;49.324;8.694;2023-03-04T11:16:57;100528.19;;;2.99;61.60
38716;BME280;24833;49.324;8.694;2023-03-04T11:19:38;100525.03;;;3.06;61.50
38716;BME280;24833;49.324;8.694;2023-03-04T11:22:05;100519.38;;;3.10;61.71
38716;BME280;24833;49.324;8.694;2023-03-04T11:24:33;100521.50;;;3.16;61.85
38716;BME280;24833;49.324;8.694;2023-03-04T11:27:20;100507.91;;;3.21;61.52
38716;BME280;24833;49.324;8.694;2023-03-04T11:29:57;100511.25;;;3.23;61.60
38716;BME280;24833;49.324;8.694;2023-03-04T11:32:36;100506.44;;;3.28;61.40
38716;BME280;24833;49.324;8.694;2023-03-04T11:35:31;100506.03;;;3.33;61.47
38716;BME280;24833;49.324;8.694;2023-03-04T11:38:16;100501.34;;;3.36;61.35
38716;BME280;24833;49.324;8.694;2023-03-04T11:41:10;100497.44;;;3.40;61.65
38716;BME280;24833;49.324;8.694;2023-03-04T11:43:42;100502.19;;;3.46;61.68
38716;BME280;24833;49.324;8.694;2023-03-04T11:46:36;100505.16;;;3.53;61.89
38716;BME280;24833;49.324;8.694;2023-03-04T12:06:11;100494.31;;;3.87;61.88
38716;BME280;24833;49.324;8.694;2023-03-04T12:11:51;100487.50;;;3.94;61.60
38716;BME280;24833;49.324;8.694;2023-03-04T12:31:38;100463.22;;;4.09;62.11
38716;BME280;24833;49.324;8.694;2023-03-04T12:34:29;100459.31;;;4.14;61.72
38716;BME280;24833;49.324;8.694;2023-03-04T12:40:33;100452.94;;;4.16;61.76
38716;BME280;24833;49.324;8.694;2023-03-04T12:46:26;100449.03;;;4.20;61.81
38716;BME280;24833;49.324;8.694;2023-03-04T12:54:40;100439.56;;;4.27;61.90
38716;BME280;24833;49.324;8.694;2023-03-04T12:57:21;100435.56;;;4.33;61.93
38716;BME280;24833;49.324;8.694;2023-03-04T13:06:00;100427.63;;;4.43;62.18
38716;BME280;24833;49.324;8.694;2023-03-04T13:08:53;100432.63;;;4.46;61.77
38716;BME280;24833;49.324;8.694;2023-03-04T13:16:52;100424.00;;;4.53;61.91
38716;BME280;24833;49.324;8.694;2023-03-04T13:19:50;100422.06;;;4.55;62.06
38716;BME280;24833;49.324;8.694;2023-03-04T13:25:47;100420.66;;;4.61;61.70
38716;BME280;24833;49.324;8.694;2023-03-04T13:28:31;100419.53;;;4.63;61.81
38716;BME280;24833;49.324;8.694;2023-03-04T13:37:56;100413.84;;;4.68;61.78
38716;BME280;24833;49.324;8.694;2023-03-04T13:40:33;100412.03;;;4.69;61.56
38716;BME280;24833;49.324;8.694;2023-03-04T13:43:24;100407.56;;;4.69;61.43
38716;BME280;24833;49.324;8.694;2023-03-04T13:45:51;100410.34;;;4.68;61.66
38716;BME280;24833;49.324;8.694;2023-03-04T13:48:33;100404.09;;;4.69;61.56
38716;BME280;24833;49.324;8.694;2023-03-04T13:51:03;100401.44;;;4.69;61.48
38716;BME280;24833;49.324;8.694;2023-03-04T13:53:38;100397.00;;;4.69;61.63
38716;BME280;24833;49.324;8.694;2023-03-04T13:56:34;100390.88;;;4.69;61.52
38716;BME280;24833;49.324;8.694;2023-03-04T14:04:33;100397.25;;;4.66;61.27
38716;BME280;24833;49.324;8.694;2023-03-04T14:07:17;100385.00;;;4.65;61.44
38716;BME280;24833;49.324;8.694;2023-03-04T14:12:28;100390.59;;;4.62;61.34
38716;BME280;24833;49.324;8.694;2023-03-04T14:14:59;100388.78;;;4.62;61.37
38716;BME280;24833;49.324;8.694;2023-03-04T14:17:35;100383.75;;;4.59;61.25
38716;BME280;24833;49.324;8.694;2023-03-04T14:20:34;100381.97;;;4.60;61.19
38716;BME280;24833;49.324;8.694;2023-03-04T14:23:21;100382.09;;;4.58;61.34
38716;BME280;24833;49.324;8.694;2023-03-04T14:25:48;100375.16;;;4.57;61.17
38716;BME280;24833;49.324;8.694;2023-03-04T14:28:19;100372.50;;;4.57;61.18
38716;BME280;24833;49.324;8.694;2023-03-04T14:30:55;100377.78;;;4.57;61.22
38716;BME280;24833;49.324;8.694;2023-03-04T14:33:29;100377.78;;;4.57;61.26
38716;BME280;24833;49.324;8.694;2023-03-04T14:35:59;100370.84;;;4.56;61.24
38716;BME280;24833;49.324;8.694;2023-03-04T14:38:36;100372.66;;;4.56;61.01
38716;BME280;24833;49.324;8.694;2023-03-04T14:41:32;100373.63;;;4.55;61.11
38716;BME280;24833;49.324;8.694;2023-03-04T14:47:00;100353.59;;;4.52;61.32
38716;BME280;24833;49.324;8.694;2023-03-04T14:49:38;100362.50;;;4.51;61.00
38716;BME280;24833;49.324;8.694;2023-03-04T14:52:06;100351.09;;;4.51;61.28
38716;BME280;24833;49.324;8.694;2023-03-04T14:54:38;100360.84;;;4.50;61.31
38716;BME280;24833;49.324;8.694;2023-03-04T14:57:25;100355.53;;;4.50;60.98
38716;BME280;24833;49.324;8.694;2023-03-04T14:59:55;100350.25;;;4.50;61.02
38716;BME280;24833;49.324;8.694;2023-03-04T15:02:27;100343.31;;;4.49;61.05
38716;BME280;24833;49.324;8.694;2023-03-04T15:05:18;100335.50;;;4.48;60.97